createdAt,value
2023-04-01T00:01:30.066Z,98512.47
2023-04-01T00:03:58.951Z,98515.09
2023-04-01T00:06:27.993Z,98512.63
2023-04-01T00:08:56.857Z,98502.56
2023-04-01T00:11:27.608Z,98503.00
2023-04-01T00:13:56.620Z,98494.59
2023-04-01T00:16:25.756Z,98497.06
2023-04-01T00:18:55.923Z,98498.19
2023-04-01T00:21:25.009Z,98492.53
2023-04-01T00:23:53.889Z,98486.09
2023-04-01T00:26:23.472Z,98484.00
2023-04-01T00:28:52.950Z,98471.13
2023-04-01T00:31:22.269Z,98478.72
2023-04-01T00:33:51.673Z,98478.06
2023-04-01T00:36:24.421Z,98475.59
2023-04-01T00:38:53.729Z,98477.69
2023-04-01T00:41:22.939Z,98482.56
2023-04-01T00:43:53.844Z,98488.97
2023-04-01T00:46:23.021Z,98488.56
2023-04-01T00:48:57.219Z,98481.50
2023-04-01T00:51:32.534Z,98477.22
2023-04-01T00:54:04.778Z,98481.66
2023-04-01T00:56:40.676Z,98484.00
2023-04-01T00:59:16.405Z,98480.84
2023-04-01T01:01:45.533Z,98480.00
2023-04-01T01:04:26.665Z,98471.97
2023-04-01T01:07:14.316Z,98473.63
2023-04-01T01:09:55.433Z,98472.81
2023-04-01T01:12:31.083Z,98469.34
2023-04-01T01:15:13.018Z,98476.63
2023-04-01T01:17:55.610Z,98478.13
2023-04-01T01:20:59.075Z,98468.75
2023-04-01T01:24:24.847Z,98475.50
2023-04-01T01:27:05.697Z,98482.94
2023-04-01T01:30:11.509Z,98477.47
2023-04-01T01:33:31.471Z,98474.69
2023-04-01T01:36:07.107Z,98483.38
2023-04-01T01:38:38.638Z,98480.75
2023-04-01T01:41:12.145Z,98484.38
2023-04-01T01:43:46.730Z,98486.53
2023-04-01T01:46:22.674Z,98487.38
2023-04-01T01:48:54.044Z,98491.66
2023-04-01T01:51:25.856Z,98487.91
2023-04-01T01:53:54.850Z,98488.19
2023-04-01T01:56:31.364Z,98483.63
2023-04-01T01:59:05.804Z,98484.97
2023-04-01T02:01:41.847Z,98480.53
2023-04-01T02:04:17.997Z,98477.09
2023-04-01T02:06:58.174Z,98479.72
2023-04-01T02:09:27.248Z,98476.78
2023-04-01T02:12:01.900Z,98466.88
2023-04-01T02:14:43.819Z,98467.84
2023-04-01T02:17:18.109Z,98466.88
2023-04-01T02:19:55.832Z,98464.69
2023-04-01T02:22:33.659Z,98466.34
2023-04-01T02:25:08.201Z,98460.56
2023-04-01T02:27:38.237Z,98458.25
2023-04-01T02:30:09.379Z,98456.28
2023-04-01T02:32:41.307Z,98447.34
2023-04-01T02:35:13.736Z,98446.81
2023-04-01T02:37:46.266Z,98446.31
2023-04-01T02:40:17.913Z,98449.06
2023-04-01T02:42:48.061Z,98445.78
2023-04-01T02:45:17.192Z,98446.59
2023-04-01T02:47:46.249Z,98454.19
2023-04-01T02:50:15.330Z,98449.22
2023-04-01T02:52:45.986Z,98457.94
2023-04-01T02:55:15.540Z,98459.59
2023-04-01T02:57:44.584Z,98452.66
2023-04-01T03:00:15.564Z,98461.84
2023-04-01T03:02:45.358Z,98461.84
2023-04-01T03:05:14.272Z,98466.25
2023-04-01T03:07:43.372Z,98469.72
2023-04-01T03:10:13.806Z,98470.69
2023-04-01T03:12:43.236Z,98469.03
2023-04-01T03:15:15.217Z,98477.88
2023-04-01T03:17:45.558Z,98474.06
2023-04-01T03:20:15.994Z,98474.06
2023-04-01T03:22:45.169Z,98477.50
2023-04-01T03:25:15.618Z,98470.44
2023-04-01T03:27:44.638Z,98472.09
2023-04-01T03:30:13.863Z,98479.16
2023-04-01T03:32:51.647Z,98480.66
2023-04-01T03:35:21.352Z,98476.38
2023-04-01T03:37:50.546Z,98476.06
2023-04-01T03:40:21.309Z,98481.72
2023-04-01T03:42:51.021Z,98484.19
2023-04-01T03:45:20.176Z,98491.41
2023-04-01T03:47:49.259Z,98487.97
2023-04-01T03:50:18.449Z,98492.22
2023-04-01T03:52:47.500Z,98493.06
2023-04-01T03:55:16.600Z,98502.44
2023-04-01T03:57:47.368Z,98497.19
2023-04-01T04:00:21.237Z,98499.97
2023-04-01T04:02:56.825Z,98501.78
2023-04-01T04:05:32.353Z,98509.28
2023-04-01T04:08:01.617Z,98509.28
2023-04-01T04:10:30.971Z,98519.91
2023-04-01T04:13:01.397Z,98509.28
2023-04-01T04:15:33.079Z,98514.81
2023-04-01T04:18:02.392Z,98520.75
2023-04-01T04:20:31.380Z,98518.50
2023-04-01T04:23:02.134Z,98520.44
2023-04-01T04:25:31.128Z,98527.38
2023-04-01T04:28:01.811Z,98526.22
2023-04-01T04:30:30.882Z,98539.22
2023-04-01T04:33:00.082Z,98528.44
2023-04-01T04:35:30.209Z,98530.06
2023-04-01T04:37:59.521Z,98523.47
2023-04-01T04:40:28.381Z,98537.28
2023-04-01T04:42:57.623Z,98528.44
2023-04-01T04:45:27.926Z,98528.97
2023-04-01T04:47:59.116Z,98524.53
2023-04-01T04:50:28.365Z,98529.25
2023-04-01T04:52:57.737Z,98532.03
2023-04-01T04:55:26.555Z,98527.91
2023-04-01T04:58:16.143Z,98536.34
2023-04-01T05:00:48.658Z,98545.75
2023-04-01T05:03:28.926Z,98538.97
2023-04-01T05:05:57.914Z,98540.78
2023-04-01T05:08:27.054Z,98536.13
2023-04-01T05:10:55.938Z,98541.09
2023-04-01T05:13:25.007Z,98540.41
2023-04-01T05:15:57.499Z,98540.25
2023-04-01T05:18:26.740Z,98546.88
2023-04-01T05:20:57.422Z,98548.31
2023-04-01T05:23:26.603Z,98545.41
2023-04-01T05:25:55.455Z,98543.00
2023-04-01T05:28:24.996Z,98546.69
2023-04-01T05:30:56.016Z,98545.72
2023-04-01T05:33:27.920Z,98543.25
2023-04-01T05:35:57.129Z,98542.44
2023-04-01T05:38:26.294Z,98540.53
2023-04-01T05:41:01.670Z,98542.88
2023-04-01T05:43:31.867Z,98542.56
2023-04-01T05:46:09.104Z,98542.44
2023-04-01T05:48:43.890Z,98548.25
2023-04-01T05:51:15.743Z,98550.75
2023-04-01T05:53:45.208Z,98545.78
2023-04-01T05:56:15.264Z,98556.44
2023-04-01T05:58:55.234Z,98544.91
2023-04-01T06:01:27.325Z,98553.72
2023-04-01T06:03:56.714Z,98554.00
2023-04-01T06:06:30.892Z,98554.22
2023-04-01T06:09:17.258Z,98554.75
2023-04-01T06:12:34.861Z,98556.34
2023-04-01T06:15:22.538Z,98554.06
2023-04-01T06:18:37.645Z,98566.78
2023-04-01T06:21:31.996Z,98564.31
2023-04-01T06:24:30.630Z,98566.50
2023-04-01T06:27:14.736Z,98558.31
2023-04-01T06:30:04.636Z,98563.25
2023-04-01T06:33:02.897Z,98567.00
2023-04-01T06:35:55.447Z,98573.09
2023-04-01T06:39:17.602Z,98561.75
2023-04-01T06:42:22.185Z,98572.56
2023-04-01T06:45:07.426Z,98571.47
2023-04-01T06:48:22.224Z,98576.88
2023-04-01T06:51:26.756Z,98575.56
2023-04-01T06:54:20.817Z,98572.34
2023-04-01T06:57:26.141Z,98572.44
2023-04-01T06:59:59.623Z,98570.31
2023-04-01T07:02:41.334Z,98577.09
2023-04-01T07:05:16.032Z,98579.88
2023-04-01T07:07:50.408Z,98581.97
2023-04-01T07:10:29.081Z,98581.28
2023-04-01T07:13:29.818Z,98577.84
2023-04-01T07:16:14.767Z,98579.28
2023-04-01T07:18:52.134Z,98584.69
2023-04-01T07:21:35.832Z,98575.97
2023-04-01T07:24:21.128Z,98575.41
2023-04-01T07:26:59.959Z,98561.81
2023-04-01T07:29:33.713Z,98575.00
2023-04-01T07:32:33.740Z,98578.00
2023-04-01T07:35:24.950Z,98573.91
2023-04-01T07:38:17.077Z,98579.56
2023-04-01T07:40:57.723Z,98573.69
2023-04-01T07:43:52.368Z,98582.63
2023-04-01T07:46:55.220Z,98586.22
2023-04-01T07:49:40.648Z,98578.63
2023-04-01T07:52:21.237Z,98579.25
2023-04-01T07:55:07.499Z,98584.81
2023-04-01T07:57:46.268Z,98586.16
2023-04-01T08:00:24.796Z,98587.31
2023-04-01T08:03:36.049Z,98585.19
2023-04-01T08:06:19.073Z,98587.88
2023-04-01T08:09:02.164Z,98582.41
2023-04-01T08:11:59.224Z,98594.22
2023-04-01T08:15:04.169Z,98597.88
2023-04-01T08:18:10.452Z,98589.31
2023-04-01T08:20:49.475Z,98596.78
2023-04-01T08:23:23.468Z,98595.88
2023-04-01T08:26:01.198Z,98598.41
2023-04-01T08:28:43.554Z,98607.13
2023-04-01T08:31:21.100Z,98600.91
2023-04-01T08:33:55.100Z,98609.25
2023-04-01T08:36:33.738Z,98608.06
2023-04-01T08:39:23.921Z,98608.28
2023-04-01T08:42:34.098Z,98606.09
2023-04-01T08:45:28.341Z,98613.09
2023-04-01T08:48:59.561Z,98607.44
2023-04-01T08:52:22.591Z,98613.47
2023-04-01T08:55:29.922Z,98614.34
2023-04-01T08:59:08.299Z,98615.25
2023-04-01T09:02:42.457Z,98619.41
2023-04-01T09:06:07.285Z,98616.63
2023-04-01T09:09:02.534Z,98603.09
2023-04-01T09:11:58.922Z,98622.91
2023-04-01T09:15:10.170Z,98627.66
2023-04-01T09:18:20.342Z,98614.56
2023-04-01T09:21:21.826Z,98627.22
2023-04-01T09:24:41.174Z,98628.13
2023-04-01T09:27:27.859Z,98633.00
2023-04-01T09:30:44.557Z,98631.50
2023-04-01T09:34:18.964Z,98638.84
2023-04-01T09:37:22.950Z,98634.25
2023-04-01T09:40:19.861Z,98634.50
2023-04-01T09:43:24.989Z,98634.25
2023-04-01T09:46:20.389Z,98627.38
2023-04-01T09:49:33.609Z,98631.44
2023-04-01T09:52:26.202Z,98633.84
2023-04-01T09:55:19.044Z,98624.97
2023-04-01T09:58:43.888Z,98638.50
2023-04-01T10:02:28.464Z,98636.84
2023-04-01T10:05:44.668Z,98645.91
2023-04-01T10:09:19.459Z,98640.75
2023-04-01T10:12:36.729Z,98649.69
2023-04-01T10:15:39.232Z,98654.75
2023-04-01T10:19:02.372Z,98658.91
2023-04-01T10:22:26.602Z,98654.63
2023-04-01T10:25:35.427Z,98653.78
2023-04-01T10:28:53.619Z,98651.19
2023-04-01T10:32:59.078Z,98653.97
2023-04-01T10:36:26.615Z,98658.94
2023-04-01T10:39:47.105Z,98653.00
2023-04-01T10:43:29.822Z,98657.00
2023-04-01T10:47:13.472Z,98657.75
2023-04-01T10:50:24.895Z,98647.38
2023-04-01T10:53:40.671Z,98653.38
2023-04-01T10:56:41.985Z,98655.38
2023-04-01T11:00:27.380Z,98654.31
2023-04-01T11:03:55.979Z,98655.22
2023-04-01T11:08:06.757Z,98657.00
2023-04-01T11:11:28.909Z,98665.81
2023-04-01T11:14:45.789Z,98660.91
2023-04-01T11:17:59.516Z,98663.59
2023-04-01T11:21:09.701Z,98663.91
2023-04-01T11:24:05.094Z,98660.25
2023-04-01T11:26:59.481Z,98672.03
2023-04-01T11:30:14.748Z,98662.41
2023-04-01T11:33:00.249Z,98661.97
2023-04-01T11:36:08.922Z,98665.16
2023-04-01T11:39:21.745Z,98654.31
2023-04-01T11:42:30.889Z,98651.94
2023-04-01T11:45:38.728Z,98653.81
2023-04-01T11:48:38.374Z,98662.84
2023-04-01T11:51:38.907Z,98660.69
2023-04-01T11:54:29.927Z,98667.00
2023-04-01T11:57:37.755Z,98664.94
2023-04-01T12:00:35.284Z,98661.28
2023-04-01T12:03:32.031Z,98665.09
2023-04-01T12:06:10.951Z,98662.38
2023-04-01T12:08:55.770Z,98664.16
2023-04-01T12:11:37.251Z,98673.72
2023-04-01T12:14:20.248Z,98662.41
2023-04-01T12:17:11.866Z,98675.66
2023-04-01T12:19:53.825Z,98664.66
2023-04-01T12:22:51.811Z,98675.16
2023-04-01T12:25:51.242Z,98677.84
2023-04-01T12:28:32.851Z,98667.06
2023-04-01T12:31:25.049Z,98670.16
2023-04-01T12:34:31.823Z,98676.50
2023-04-01T12:37:15.823Z,98678.53
2023-04-01T12:40:04.415Z,98684.47
2023-04-01T12:42:59.256Z,98678.50
2023-04-01T12:45:34.712Z,98681.16
2023-04-01T12:48:33.919Z,98680.81
2023-04-01T12:51:39.955Z,98676.03
2023-04-01T12:54:54.357Z,98676.84
2023-04-01T12:58:08.329Z,98685.75
2023-04-01T13:01:09.440Z,98676.03
2023-04-01T13:04:08.086Z,98679.31
2023-04-01T13:07:20.048Z,98682.13
2023-04-01T13:10:03.592Z,98684.13
2023-04-01T13:12:58.384Z,98679.31
2023-04-01T13:15:37.756Z,98681.31
2023-04-01T13:18:24.151Z,98684.78
2023-04-01T13:21:07.764Z,98685.47
2023-04-01T13:23:58.130Z,98697.00
2023-04-01T13:26:39.635Z,98696.84
2023-04-01T13:29:18.955Z,98709.06
2023-04-01T13:32:08.148Z,98714.06
2023-04-01T13:35:01.965Z,98714.97
2023-04-01T13:37:51.940Z,98709.78
2023-04-01T13:40:42.753Z,98707.41
2023-04-01T13:43:24.564Z,98716.84
2023-04-01T13:46:19.640Z,98722.16
2023-04-01T13:49:30.956Z,98720.59
2023-04-01T13:52:33.338Z,98723.81
2023-04-01T13:55:43.083Z,98731.25
2023-04-01T13:58:48.263Z,98727.78
2023-04-01T14:01:28.800Z,98731.69
2023-04-01T14:04:50.403Z,98743.50
2023-04-01T14:07:49.610Z,98739.88
2023-04-01T14:10:30.188Z,98747.34
2023-04-01T14:13:09.854Z,98747.22
2023-04-01T14:16:28.108Z,98751.31
2023-04-01T14:19:17.602Z,98752.31
2023-04-01T14:21:54.402Z,98752.75
2023-04-01T14:24:52.758Z,98752.25
2023-04-01T14:27:44.245Z,98752.91
2023-04-01T14:30:53.965Z,98759.63
2023-04-01T14:33:40.489Z,98764.41
2023-04-01T14:36:38.393Z,98775.78
2023-04-01T14:39:36.294Z,98766.41
2023-04-01T14:42:26.101Z,98775.94
2023-04-01T14:45:38.737Z,98783.00
2023-04-01T14:48:25.971Z,98781.19
2023-04-01T14:51:05.190Z,98796.72
2023-04-01T14:53:42.787Z,98796.00
2023-04-01T14:56:11.815Z,98799.13
2023-04-01T14:58:47.843Z,98804.97
2023-04-01T15:01:43.444Z,98811.47
2023-04-01T15:04:51.643Z,98819.94
2023-04-01T15:07:52.555Z,98814.56
2023-04-01T15:10:49.357Z,98827.47
2023-04-01T15:13:38.555Z,98830.63
2023-04-01T15:16:25.236Z,98827.19
2023-04-01T15:19:14.937Z,98834.53
2023-04-01T15:22:21.281Z,98829.41
2023-04-01T15:25:08.704Z,98839.56
2023-04-01T15:27:47.208Z,98847.16
2023-04-01T15:30:36.317Z,98845.59
2023-04-01T15:33:53.246Z,98851.59
2023-04-01T15:36:41.438Z,98854.81
2023-04-01T15:39:19.540Z,98854.13
2023-04-01T15:42:14.991Z,98860.88
2023-04-01T15:45:09.139Z,98863.66
2023-04-01T15:47:44.466Z,98864.38
2023-04-01T15:51:01.011Z,98869.56
2023-04-01T15:54:40.316Z,98875.44
2023-04-01T15:57:27.842Z,98885.66
2023-04-01T16:00:23.379Z,98887.06
2023-04-01T16:03:11.874Z,98889.13
2023-04-01T16:05:57.722Z,98890.81
2023-04-01T16:09:02.278Z,98899.13
2023-04-01T16:11:46.111Z,98902.72
2023-04-01T16:14:33.918Z,98909.78
2023-04-01T16:17:24.481Z,98914.91
2023-04-01T16:19:58.126Z,98920.72
2023-04-01T16:22:36.296Z,98931.91
2023-04-01T16:25:30.253Z,98920.03
2023-04-01T16:28:21.722Z,98928.47
2023-04-01T16:31:01.963Z,98936.94
2023-04-01T16:33:47.891Z,98942.34
2023-04-01T16:36:30.545Z,98942.06
2023-04-01T16:39:24.615Z,98945.78
2023-04-01T16:42:19.081Z,98952.47
2023-04-01T16:44:57.915Z,98953.00
2023-04-01T16:47:34.289Z,98956.59
2023-04-01T16:50:17.482Z,98967.69
2023-04-01T16:53:02.737Z,98976.25
2023-04-01T16:55:51.013Z,98977.78
2023-04-01T16:58:29.505Z,98985.53
2023-04-01T17:01:07.994Z,98994.81
2023-04-01T17:03:44.644Z,98989.41
2023-04-01T17:06:32.021Z,99003.09
2023-04-01T17:09:35.454Z,99005.06
2023-04-01T17:12:16.599Z,98996.06
2023-04-01T17:14:56.730Z,99008.81
2023-04-01T17:17:47.856Z,99009.75
2023-04-01T17:20:41.753Z,99016.09
2023-04-01T17:23:23.462Z,99021.09
2023-04-01T17:26:22.895Z,99022.63
2023-04-01T17:28:59.494Z,99033.41
2023-04-01T17:31:48.742Z,99039.63
2023-04-01T17:34:56.006Z,99040.75
2023-04-01T17:37:43.864Z,99049.72
2023-04-01T17:40:34.125Z,99049.03
2023-04-01T17:43:18.778Z,99051.53
2023-04-01T17:45:56.539Z,99063.41
2023-04-01T17:48:43.951Z,99068.63
2023-04-01T17:51:33.245Z,99074.19
2023-04-01T17:54:23.438Z,99078.84
2023-04-01T17:57:16.528Z,99082.19
2023-04-01T18:00:02.469Z,99082.75
2023-04-01T18:02:54.476Z,99089.78
2023-04-01T18:06:02.554Z,99090.44
2023-04-01T18:09:01.932Z,99100.69
2023-04-01T18:11:46.667Z,99105.63
2023-04-01T18:14:45.120Z,99109.88
2023-04-01T18:17:27.744Z,99118.47
2023-04-01T18:20:32.488Z,99116.09
2023-04-01T18:23:12.385Z,99129.63
2023-04-01T18:25:49.146Z,99129.31
2023-04-01T18:28:28.635Z,99134.00
2023-04-01T18:31:06.933Z,99137.91
2023-04-01T18:33:50.213Z,99144.53
2023-04-01T18:36:28.723Z,99148.78
2023-04-01T18:39:06.869Z,99145.06
2023-04-01T18:41:50.915Z,99155.59
2023-04-01T18:44:38.931Z,99160.84
2023-04-01T18:47:27.706Z,99168.28
2023-04-01T18:50:04.054Z,99163.34
2023-04-01T18:52:39.898Z,99167.69
2023-04-01T18:55:39.555Z,99162.31
2023-04-01T18:58:25.072Z,99177.72
2023-04-01T19:01:15.134Z,99179.84
2023-04-01T19:03:58.868Z,99175.34
2023-04-01T19:06:35.738Z,99187.03
2023-04-01T19:09:28.198Z,99184.94
2023-04-01T19:12:40.337Z,99190.19
2023-04-01T19:15:29.671Z,99196.91
2023-04-01T19:18:28.864Z,99204.16
2023-04-01T19:21:07.531Z,99207.03
2023-04-01T19:24:08.531Z,99208.94
2023-04-01T19:26:46.261Z,99211.81
2023-04-01T19:29:36.266Z,99225.59
2023-04-01T19:32:21.049Z,99216.13
2023-04-01T19:35:05.704Z,99227.56
2023-04-01T19:37:41.486Z,99232.34
2023-04-01T19:40:50.505Z,99231.78
2023-04-01T19:43:49.893Z,99231.56
2023-04-01T19:46:32.307Z,99236.34
2023-04-01T19:49:43.219Z,99241.13
2023-04-01T19:52:20.349Z,99247.47
2023-04-01T19:54:59.529Z,99238.03
2023-04-01T19:57:48.197Z,99242.22
2023-04-01T20:00:28.506Z,99255.28
2023-04-01T20:03:20.834Z,99256.50
2023-04-01T20:06:09.088Z,99255.44
2023-04-01T20:08:47.731Z,99260.56
2023-04-01T20:11:32.853Z,99262.94
2023-04-01T20:14:17.997Z,99263.91
2023-04-01T20:17:01.361Z,99266.66
2023-04-01T20:19:41.229Z,99263.69
2023-04-01T20:22:31.844Z,99267.00
2023-04-01T20:25:08.882Z,99276.50
2023-04-01T20:27:47.610Z,99273.69
2023-04-01T20:30:47.479Z,99277.50
2023-04-01T20:33:55.970Z,99277.50
2023-04-01T20:36:37.193Z,99278.03
2023-04-01T20:39:42.093Z,99290.31
2023-04-01T20:42:36.407Z,99286.25
2023-04-01T20:45:33.614Z,99293.88
2023-04-01T20:49:07.222Z,99296.38
2023-04-01T20:51:41.830Z,99296.84
2023-04-01T20:54:35.773Z,99307.59
2023-04-01T20:57:13.692Z,99308.31
2023-04-01T21:00:18.247Z,99317.38
2023-04-01T21:03:08.246Z,99316.41
2023-04-01T21:06:12.497Z,99323.09
2023-04-01T21:09:11.259Z,99327.50
2023-04-01T21:11:53.843Z,99335.50
2023-04-01T21:14:53.783Z,99340.16
2023-04-01T21:17:41.652Z,99338.81
2023-04-01T21:20:49.177Z,99343.72
2023-04-01T21:23:59.290Z,99347.03
2023-04-01T21:26:48.255Z,99349.06
2023-04-01T21:29:55.348Z,99352.28
2023-04-01T21:32:48.734Z,99355.50
2023-04-01T21:35:33.574Z,99354.91
2023-04-01T21:38:32.128Z,99358.97
2023-04-01T21:41:34.012Z,99364.31
2023-04-01T21:44:50.887Z,99364.31
2023-04-01T21:48:21.175Z,99369.94
2023-04-01T21:51:43.647Z,99376.94
2023-04-01T21:55:24.064Z,99371.22
2023-04-01T21:59:14.799Z,99384.31
2023-04-01T22:02:16.649Z,99382.88
2023-04-01T22:05:00.170Z,99387.75
2023-04-01T22:07:39.688Z,99381.09
2023-04-01T22:10:28.351Z,99382.91
2023-04-01T22:13:09.345Z,99388.97
2023-04-01T22:16:03.131Z,99386.00
2023-04-01T22:18:38.185Z,99394.47
2023-04-01T22:21:22.214Z,99399.81
2023-04-01T22:24:02.593Z,99399.22
2023-04-01T22:26:40.115Z,99400.03
2023-04-01T22:29:19.471Z,99404.84
2023-04-01T22:31:56.165Z,99403.03
2023-04-01T22:34:39.895Z,99412.44
2023-04-01T22:37:19.141Z,99419.97
2023-04-01T22:40:12.932Z,99416.09
2023-04-01T22:42:46.705Z,99420.19
2023-04-01T22:45:55.604Z,99421.00
